sensor_id;sensor_type;location;lat;lon;timestamp;temperature;humidity
10245;DHT22;5167;52.164;10.530;2023-08-30T00:01:12;17.10;22.10
10245;DHT22;5167;52.164;10.530;2023-08-30T00:03:38;17.20;21.50
10245;DHT22;5167;52.164;10.530;2023-08-30T00:06:05;17.10;21.60
10245;DHT22;5167;52.164;10.530;2023-08-30T00:08:33;17.10;22.30
10245;DHT22;5167;52.164;10.530;2023-08-30T00:10:59;17.10;22.00
10245;DHT22;5167;52.164;10.530;2023-08-30T00:13:25;17.00;22.40
10245;DHT22;5167;52.164;10.530;2023-08-30T00:15:51;17.00;22.60
10245;DHT22;5167;52.164;10.530;2023-08-30T00:18:17;16.90;22.70
10245;DHT22;5167;52.164;10.530;2023-08-30T00:20:44;16.90;23.00
10245;DHT22;5167;52.164;10.530;2023-08-30T00:23:10;16.80;22.10
10245;DHT22;5167;52.164;10.530;2023-08-30T00:25:35;16.90;22.80
10245;DHT22;5167;52.164;10.530;2023-08-30T00:28:01;16.70;22.70
10245;DHT22;5167;52.164;10.530;2023-08-30T00:30:26;16.70;22.90
10245;DHT22;5167;52.164;10.530;2023-08-30T00:32:52;16.70;23.10
10245;DHT22;5167;52.164;10.530;2023-08-30T00:35:17;16.70;23.50
10245;DHT22;5167;52.164;10.530;2023-08-30T00:37:43;16.70;21.50
10245;DHT22;5167;52.164;10.530;2023-08-30T00:40:09;16.60;22.00
10245;DHT22;5167;52.164;10.530;2023-08-30T00:42:34;16.70;24.30
10245;DHT22;5167;52.164;10.530;2023-08-30T00:45:00;16.60;22.00
10245;DHT22;5167;52.164;10.530;2023-08-30T00:47:25;16.60;22.00
10245;DHT22;5167;52.164;10.530;2023-08-30T00:49:51;16.60;21.70
10245;DHT22;5167;52.164;10.530;2023-08-30T00:52:17;16.50;22.10
10245;DHT22;5167;52.164;10.530;2023-08-30T00:54:42;16.50;21.90
10245;DHT22;5167;52.164;10.530;2023-08-30T00:57:08;16.50;22.50
10245;DHT22;5167;52.164;10.530;2023-08-30T00:59:34;16.50;22.40
10245;DHT22;5167;52.164;10.530;2023-08-30T01:02:00;16.50;22.80
10245;DHT22;5167;52.164;10.530;2023-08-30T01:04:29;16.40;23.30
10245;DHT22;5167;52.164;10.530;2023-08-30T01:06:54;16.40;22.80
10245;DHT22;5167;52.164;10.530;2023-08-30T01:09:20;16.40;24.10
10245;DHT22;5167;52.164;10.530;2023-08-30T01:12:03;16.40;23.70
10245;DHT22;5167;52.164;10.530;2023-08-30T01:14:38;16.30;23.90
10245;DHT22;5167;52.164;10.530;2023-08-30T01:17:05;16.30;23.70
10245;DHT22;5167;52.164;10.530;2023-08-30T01:19:58;16.30;24.90
10245;DHT22;5167;52.164;10.530;2023-08-30T01:22:29;16.20;24.30
10245;DHT22;5167;52.164;10.530;2023-08-30T01:27:52;16.20;24.90
10245;DHT22;5167;52.164;10.530;2023-08-30T01:30:19;16.20;23.50
10245;DHT22;5167;52.164;10.530;2023-08-30T01:32:46;16.10;23.50
10245;DHT22;5167;52.164;10.530;2023-08-30T01:35:12;16.20;24.10
10245;DHT22;5167;52.164;10.530;2023-08-30T01:37:44;16.10;24.50
10245;DHT22;5167;52.164;10.530;2023-08-30T01:40:11;16.10;24.70
10245;DHT22;5167;52.164;10.530;2023-08-30T01:42:38;16.10;24.90
10245;DHT22;5167;52.164;10.530;2023-08-30T01:45:06;16.10;25.00
10245;DHT22;5167;52.164;10.530;2023-08-30T01:47:34;16.10;25.20
10245;DHT22;5167;52.164;10.530;2023-08-30T01:50:00;16.10;25.10
10245;DHT22;5167;52.164;10.530;2023-08-30T01:52:26;16.00;25.00
10245;DHT22;5167;52.164;10.530;2023-08-30T01:54:52;16.00;25.60
10245;DHT22;5167;52.164;10.530;2023-08-30T01:57:19;16.00;25.70
10245;DHT22;5167;52.164;10.530;2023-08-30T01:59:44;15.90;26.10
10245;DHT22;5167;52.164;10.530;2023-08-30T02:02:10;15.90;26.30
10245;DHT22;5167;52.164;10.530;2023-08-30T02:04:35;15.90;25.10
10245;DHT22;5167;52.164;10.530;2023-08-30T02:07:03;15.90;25.90
10245;DHT22;5167;52.164;10.530;2023-08-30T02:09:38;15.90;25.60
10245;DHT22;5167;52.164;10.530;2023-08-30T02:12:07;15.80;25.60
10245;DHT22;5167;52.164;10.530;2023-08-30T02:14:35;15.80;26.00
10245;DHT22;5167;52.164;10.530;2023-08-30T02:17:02;15.80;25.50
10245;DHT22;5167;52.164;10.530;2023-08-30T02:19:28;15.70;25.60
10245;DHT22;5167;52.164;10.530;2023-08-30T02:21:54;15.70;24.50
10245;DHT22;5167;52.164;10.530;2023-08-30T02:24:19;15.80;24.50
10245;DHT22;5167;52.164;10.530;2023-08-30T02:26:45;15.60;25.10
10245;DHT22;5167;52.164;10.530;2023-08-30T02:29:10;15.70;25.20
10245;DHT22;5167;52.164;10.530;2023-08-30T02:31:36;15.60;24.40
10245;DHT22;5167;52.164;10.530;2023-08-30T02:34:01;15.60;23.80
10245;DHT22;5167;52.164;10.530;2023-08-30T02:36:27;15.60;26.40
10245;DHT22;5167;52.164;10.530;2023-08-30T02:38:53;15.60;23.10
10245;DHT22;5167;52.164;10.530;2023-08-30T02:41:18;15.50;23.00
10245;DHT22;5167;52.164;10.530;2023-08-30T02:43:44;15.50;23.00
10245;DHT22;5167;52.164;10.530;2023-08-30T02:46:09;15.50;23.80
10245;DHT22;5167;52.164;10.530;2023-08-30T02:48:35;15.60;25.00
10245;DHT22;5167;52.164;10.530;2023-08-30T02:51:00;15.60;24.70
10245;DHT22;5167;52.164;10.530;2023-08-30T02:53:26;15.50;24.60
10245;DHT22;5167;52.164;10.530;2023-08-30T02:55:51;15.50;23.90
10245;DHT22;5167;52.164;10.530;2023-08-30T02:58:21;15.50;25.10
10245;DHT22;5167;52.164;10.530;2023-08-30T03:00:46;15.40;24.40
10245;DHT22;5167;52.164;10.530;2023-08-30T03:03:12;15.40;24.40
10245;DHT22;5167;52.164;10.530;2023-08-30T03:05:38;15.30;24.80
10245;DHT22;5167;52.164;10.530;2023-08-30T03:08:04;15.40;24.20
10245;DHT22;5167;52.164;10.530;2023-08-30T03:10:29;15.30;24.50
10245;DHT22;5167;52.164;10.530;2023-08-30T03:12:55;15.30;24.90
10245;DHT22;5167;52.164;10.530;2023-08-30T03:15:20;15.20;24.90
10245;DHT22;5167;52.164;10.530;2023-08-30T03:17:46;15.20;25.60
10245;DHT22;5167;52.164;10.530;2023-08-30T03:20:11;15.20;25.20
10245;DHT22;5167;52.164;10.530;2023-08-30T03:22:37;15.20;25.90
10245;DHT22;5167;52.164;10.530;2023-08-30T03:25:03;15.20;25.90
10245;DHT22;5167;52.164;10.530;2023-08-30T03:27:29;15.10;27.10
10245;DHT22;5167;52.164;10.530;2023-08-30T03:29:55;15.10;26.90
10245;DHT22;5167;52.164;10.530;2023-08-30T03:32:21;15.10;26.90
10245;DHT22;5167;52.164;10.530;2023-08-30T03:34:47;15.10;26.60
10245;DHT22;5167;52.164;10.530;2023-08-30T03:37:14;15.00;24.50
10245;DHT22;5167;52.164;10.530;2023-08-30T03:39:40;15.10;25.10
10245;DHT22;5167;52.164;10.530;2023-08-30T03:42:05;15.00;25.20
10245;DHT22;5167;52.164;10.530;2023-08-30T03:44:31;15.00;26.50
10245;DHT22;5167;52.164;10.530;2023-08-30T03:46:56;15.00;26.60
10245;DHT22;5167;52.164;10.530;2023-08-30T03:49:22;15.00;26.30
10245;DHT22;5167;52.164;10.530;2023-08-30T03:51:48;15.00;26.10
10245;DHT22;5167;52.164;10.530;2023-08-30T03:54:13;14.90;26.60
10245;DHT22;5167;52.164;10.530;2023-08-30T03:56:42;15.00;26.30
10245;DHT22;5167;52.164;10.530;2023-08-30T03:59:07;15.00;26.80
10245;DHT22;5167;52.164;10.530;2023-08-30T04:01:33;14.90;27.20
10245;DHT22;5167;52.164;10.530;2023-08-30T04:03:59;14.90;27.20
10245;DHT22;5167;52.164;10.530;2023-08-30T04:06:24;15.00;27.40
10245;DHT22;5167;52.164;10.530;2023-08-30T04:08:50;15.00;27.50
10245;DHT22;5167;52.164;10.530;2023-08-30T04:11:15;14.90;27.40
10245;DHT22;5167;52.164;10.530;2023-08-30T04:13:41;14.90;27.50
10245;DHT22;5167;52.164;10.530;2023-08-30T04:16:06;14.90;28.40
10245;DHT22;5167;52.164;10.530;2023-08-30T04:18:31;15.00;27.60
10245;DHT22;5167;52.164;10.530;2023-08-30T04:20:58;15.00;27.70
10245;DHT22;5167;52.164;10.530;2023-08-30T04:23:24;14.90;27.70
10245;DHT22;5167;52.164;10.530;2023-08-30T04:25:50;14.90;28.20
10245;DHT22;5167;52.164;10.530;2023-08-30T04:28:15;15.00;28.30
10245;DHT22;5167;52.164;10.530;2023-08-30T04:30:41;15.00;28.50
10245;DHT22;5167;52.164;10.530;2023-08-30T04:33:06;14.90;28.40
10245;DHT22;5167;52.164;10.530;2023-08-30T04:35:32;15.00;28.20
10245;DHT22;5167;52.164;10.530;2023-08-30T04:37:59;14.90;28.90
10245;DHT22;5167;52.164;10.530;2023-08-30T04:40:24;15.00;28.70
10245;DHT22;5167;52.164;10.530;2023-08-30T04:42:50;15.00;29.20
10245;DHT22;5167;52.164;10.530;2023-08-30T04:45:15;14.90;29.30
10245;DHT22;5167;52.164;10.530;2023-08-30T04:47:41;15.00;29.60
10245;DHT22;5167;52.164;10.530;2023-08-30T04:50:09;15.00;29.80
10245;DHT22;5167;52.164;10.530;2023-08-30T04:52:34;14.90;29.60
10245;DHT22;5167;52.164;10.530;2023-08-30T04:55:00;15.00;29.90
10245;DHT22;5167;52.164;10.530;2023-08-30T04:57:25;15.00;29.60
10245;DHT22;5167;52.164;10.530;2023-08-30T04:59:51;14.90;29.30
10245;DHT22;5167;52.164;10.530;2023-08-30T05:02:16;14.90;30.30
10245;DHT22;5167;52.164;10.530;2023-08-30T05:04:42;14.90;30.10
10245;DHT22;5167;52.164;10.530;2023-08-30T05:07:07;14.90;29.40
10245;DHT22;5167;52.164;10.530;2023-08-30T05:09:33;15.00;29.40
10245;DHT22;5167;52.164;10.530;2023-08-30T05:11:59;15.00;29.50
10245;DHT22;5167;52.164;10.530;2023-08-30T05:14:25;15.00;29.70
10245;DHT22;5167;52.164;10.530;2023-08-30T05:16:51;15.00;29.70
10245;DHT22;5167;52.164;10.530;2023-08-30T05:19:16;15.00;29.50
10245;DHT22;5167;52.164;10.530;2023-08-30T05:21:45;15.10;29.80
10245;DHT22;5167;52.164;10.530;2023-08-30T05:24:10;15.00;29.30
10245;DHT22;5167;52.164;10.530;2023-08-30T05:26:36;15.00;29.10
10245;DHT22;5167;52.164;10.530;2023-08-30T05:29:03;15.10;29.70
10245;DHT22;5167;52.164;10.530;2023-08-30T05:31:28;15.10;29.80
10245;DHT22;5167;52.164;10.530;2023-08-30T05:33:54;15.10;29.20
10245;DHT22;5167;52.164;10.530;2023-08-30T05:36:19;15.10;29.50
10245;DHT22;5167;52.164;10.530;2023-08-30T05:38:45;15.20;30.10
10245;DHT22;5167;52.164;10.530;2023-08-30T05:41:10;15.30;29.70
10245;DHT22;5167;52.164;10.530;2023-08-30T05:43:36;15.20;28.10
10245;DHT22;5167;52.164;10.530;2023-08-30T05:46:01;15.30;29.70
10245;DHT22;5167;52.164;10.530;2023-08-30T05:48:28;15.40;29.50
10245;DHT22;5167;52.164;10.530;2023-08-30T05:50:54;15.40;28.90
10245;DHT22;5167;52.164;10.530;2023-08-30T05:53:20;15.40;29.00
10245;DHT22;5167;52.164;10.530;2023-08-30T05:55:45;15.50;29.30
10245;DHT22;5167;52.164;10.530;2023-08-30T05:58:11;15.50;27.70
10245;DHT22;5167;52.164;10.530;2023-08-30T06:00:36;15.50;27.20
10245;DHT22;5167;52.164;10.530;2023-08-30T06:03:02;15.70;27.80
10245;DHT22;5167;52.164;10.530;2023-08-30T06:05:28;15.70;28.10
10245;DHT22;5167;52.164;10.530;2023-08-30T06:07:53;15.80;27.50
10245;DHT22;5167;52.164;10.530;2023-08-30T06:10:19;15.90;27.60
10245;DHT22;5167;52.164;10.530;2023-08-30T06:12:45;16.00;27.40
10245;DHT22;5167;52.164;10.530;2023-08-30T06:15:11;16.10;26.90
10245;DHT22;5167;52.164;10.530;2023-08-30T06:17:36;16.10;27.30
10245;DHT22;5167;52.164;10.530;2023-08-30T06:20:02;16.20;26.80
10245;DHT22;5167;52.164;10.530;2023-08-30T06:22:28;16.30;27.30
10245;DHT22;5167;52.164;10.530;2023-08-30T06:24:53;16.50;27.30
10245;DHT22;5167;52.164;10.530;2023-08-30T06:27:19;16.60;26.80
10245;DHT22;5167;52.164;10.530;2023-08-30T06:29:45;16.70;26.10
10245;DHT22;5167;52.164;10.530;2023-08-30T06:32:11;16.90;27.20
10245;DHT22;5167;52.164;10.530;2023-08-30T06:34:36;16.90;26.60
10245;DHT22;5167;52.164;10.530;2023-08-30T06:37:02;17.30;26.00
10245;DHT22;5167;52.164;10.530;2023-08-30T06:39:33;17.40;24.70
10245;DHT22;5167;52.164;10.530;2023-08-30T06:41:59;17.50;24.50
10245;DHT22;5167;52.164;10.530;2023-08-30T06:44:24;17.60;23.10
10245;DHT22;5167;52.164;10.530;2023-08-30T06:46:50;17.60;22.30
10245;DHT22;5167;52.164;10.530;2023-08-30T06:49:15;17.70;22.30
10245;DHT22;5167;52.164;10.530;2023-08-30T06:51:41;17.70;21.30
10245;DHT22;5167;52.164;10.530;2023-08-30T06:54:07;17.80;20.40
10245;DHT22;5167;52.164;10.530;2023-08-30T06:56:32;17.90;19.60
10245;DHT22;5167;52.164;10.530;2023-08-30T06:58:58;17.80;19.70
10245;DHT22;5167;52.164;10.530;2023-08-30T07:01:23;17.90;19.40
10245;DHT22;5167;52.164;10.530;2023-08-30T07:03:49;17.90;20.10
10245;DHT22;5167;52.164;10.530;2023-08-30T07:06:14;17.90;20.30
10245;DHT22;5167;52.164;10.530;2023-08-30T07:08:40;17.90;20.40
10245;DHT22;5167;52.164;10.530;2023-08-30T07:11:05;18.00;19.60
10245;DHT22;5167;52.164;10.530;2023-08-30T07:13:31;18.00;19.10
10245;DHT22;5167;52.164;10.530;2023-08-30T07:15:56;18.00;19.40
10245;DHT22;5167;52.164;10.530;2023-08-30T07:18:22;18.00;19.30
10245;DHT22;5167;52.164;10.530;2023-08-30T07:20:47;18.10;19.90
10245;DHT22;5167;52.164;10.530;2023-08-30T07:23:13;18.10;20.40
10245;DHT22;5167;52.164;10.530;2023-08-30T07:25:38;18.10;20.90
10245;DHT22;5167;52.164;10.530;2023-08-30T07:28:05;18.10;20.30
10245;DHT22;5167;52.164;10.530;2023-08-30T07:30:31;18.10;19.30
10245;DHT22;5167;52.164;10.530;2023-08-30T07:32:56;18.10;20.90
10245;DHT22;5167;52.164;10.530;2023-08-30T07:35:22;18.20;20.50
10245;DHT22;5167;52.164;10.530;2023-08-30T07:37:48;18.20;21.50
10245;DHT22;5167;52.164;10.530;2023-08-30T07:40:13;18.30;22.50
10245;DHT22;5167;52.164;10.530;2023-08-30T07:42:39;18.40;22.00
10245;DHT22;5167;52.164;10.530;2023-08-30T07:45:05;18.50;22.70
10245;DHT22;5167;52.164;10.530;2023-08-30T07:47:31;18.60;21.80
10245;DHT22;5167;52.164;10.530;2023-08-30T07:49:56;18.70;19.00
10245;DHT22;5167;52.164;10.530;2023-08-30T07:52:22;18.70;17.40
10245;DHT22;5167;52.164;10.530;2023-08-30T07:54:47;18.80;16.80
10245;DHT22;5167;52.164;10.530;2023-08-30T07:57:13;18.90;17.00
10245;DHT22;5167;52.164;10.530;2023-08-30T07:59:38;19.00;15.70
10245;DHT22;5167;52.164;10.530;2023-08-30T08:02:05;19.10;15.70
10245;DHT22;5167;52.164;10.530;2023-08-30T08:04:33;19.20;14.40
10245;DHT22;5167;52.164;10.530;2023-08-30T08:06:58;19.20;13.70
10245;DHT22;5167;52.164;10.530;2023-08-30T08:09:24;19.30;14.20
10245;DHT22;5167;52.164;10.530;2023-08-30T08:11:50;19.50;14.10
10245;DHT22;5167;52.164;10.530;2023-08-30T08:14:15;19.50;11.80
10245;DHT22;5167;52.164;10.530;2023-08-30T08:16:41;19.70;11.70
10245;DHT22;5167;52.164;10.530;2023-08-30T08:19:07;19.70;9.50
10245;DHT22;5167;52.164;10.530;2023-08-30T08:21:33;19.70;9.60
10245;DHT22;5167;52.164;10.530;2023-08-30T08:23:59;19.80;8.60
10245;DHT22;5167;52.164;10.530;2023-08-30T08:26:25;20.00;9.10
10245;DHT22;5167;52.164;10.530;2023-08-30T08:28:51;20.00;6.80
10245;DHT22;5167;52.164;10.530;2023-08-30T08:31:16;20.10;6.60
10245;DHT22;5167;52.164;10.530;2023-08-30T08:33:42;20.20;7.60
10245;DHT22;5167;52.164;10.530;2023-08-30T08:36:08;20.30;7.10
10245;DHT22;5167;52.164;10.530;2023-08-30T08:38:33;20.40;7.40
10245;DHT22;5167;52.164;10.530;2023-08-30T08:41:04;20.50;6.80
10245;DHT22;5167;52.164;10.530;2023-08-30T08:43:32;20.70;5.00
10245;DHT22;5167;52.164;10.530;2023-08-30T08:46:01;20.70;5.30
10245;DHT22;5167;52.164;10.530;2023-08-30T08:48:28;20.80;6.40
10245;DHT22;5167;52.164;10.530;2023-08-30T08:50:57;21.00;7.20
10245;DHT22;5167;52.164;10.530;2023-08-30T08:53:23;21.20;6.70
10245;DHT22;5167;52.164;10.530;2023-08-30T08:55:49;21.30;6.10
10245;DHT22;5167;52.164;10.530;2023-08-30T08:58:15;21.40;5.00
10245;DHT22;5167;52.164;10.530;2023-08-30T09:00:44;21.50;5.00
10245;DHT22;5167;52.164;10.530;2023-08-30T09:03:11;21.60;5.00
10245;DHT22;5167;52.164;10.530;2023-08-30T09:05:40;21.70;5.00
10245;DHT22;5167;52.164;10.530;2023-08-30T09:08:06;21.90;5.00
10245;DHT22;5167;52.164;10.530;2023-08-30T09:10:32;22.00;5.00
10245;DHT22;5167;52.164;10.530;2023-08-30T09:12:58;22.10;5.00
10245;DHT22;5167;52.164;10.530;2023-08-30T09:15:34;22.20;5.00
10245;DHT22;5167;52.164;10.530;2023-08-30T09:18:00;22.30;5.00
10245;DHT22;5167;52.164;10.530;2023-08-30T09:20:26;22.50;5.00
10245;DHT22;5167;52.164;10.530;2023-08-30T09:22:51;22.60;5.00
10245;DHT22;5167;52.164;10.530;2023-08-30T09:25:24;22.60;5.00
10245;DHT22;5167;52.164;10.530;2023-08-30T09:27:51;22.70;5.00
10245;DHT22;5167;52.164;10.530;2023-08-30T09:30:22;22.70;5.00
10245;DHT22;5167;52.164;10.530;2023-08-30T09:32:48;22.70;5.00
10245;DHT22;5167;52.164;10.530;2023-08-30T09:35:14;22.80;5.00
10245;DHT22;5167;52.164;10.530;2023-08-30T09:37:39;22.90;5.00
10245;DHT22;5167;52.164;10.530;2023-08-30T09:40:06;23.00;5.00
10245;DHT22;5167;52.164;10.530;2023-08-30T09:42:32;23.10;5.00
10245;DHT22;5167;52.164;10.530;2023-08-30T09:44:57;23.20;5.00
10245;DHT22;5167;52.164;10.530;2023-08-30T09:47:25;23.20;5.00
10245;DHT22;5167;52.164;10.530;2023-08-30T09:49:54;23.30;5.00
10245;DHT22;5167;52.164;10.530;2023-08-30T09:52:23;23.40;5.00
10245;DHT22;5167;52.164;10.530;2023-08-30T09:54:49;23.50;5.00
10245;DHT22;5167;52.164;10.530;2023-08-30T09:57:16;23.50;5.00
10245;DHT22;5167;52.164;10.530;2023-08-30T09:59:42;23.50;5.00
10245;DHT22;5167;52.164;10.530;2023-08-30T10:02:09;23.60;5.00
10245;DHT22;5167;52.164;10.530;2023-08-30T10:04:38;23.50;5.00
10245;DHT22;5167;52.164;10.530;2023-08-30T10:07:06;23.40;5.00
10245;DHT22;5167;52.164;10.530;2023-08-30T10:09:32;23.30;5.00
10245;DHT22;5167;52.164;10.530;2023-08-30T10:11:58;23.20;5.00
10245;DHT22;5167;52.164;10.530;2023-08-30T10:14:26;23.20;5.00
10245;DHT22;5167;52.164;10.530;2023-08-30T10:17:02;23.30;5.00
10245;DHT22;5167;52.164;10.530;2023-08-30T10:19:31;23.10;5.00
10245;DHT22;5167;52.164;10.530;2023-08-30T10:24:25;23.20;5.00
10245;DHT22;5167;52.164;10.530;2023-08-30T10:26:52;23.20;5.00
10245;DHT22;5167;52.164;10.530;2023-08-30T10:29:19;23.30;5.00
10245;DHT22;5167;52.164;10.530;2023-08-30T10:31:45;23.40;5.00
10245;DHT22;5167;52.164;10.530;2023-08-30T10:34:15;23.40;5.00
10245;DHT22;5167;52.164;10.530;2023-08-30T10:36:45;23.60;5.00
10245;DHT22;5167;52.164;10.530;2023-08-30T10:39:37;23.60;5.00
10245;DHT22;5167;52.164;10.530;2023-08-30T10:42:09;23.70;5.00
10245;DHT22;5167;52.164;10.530;2023-08-30T10:44:35;23.70;5.00
10245;DHT22;5167;52.164;10.530;2023-08-30T10:47:02;23.80;5.00
10245;DHT22;5167;52.164;10.530;2023-08-30T10:49:29;23.80;5.00
10245;DHT22;5167;52.164;10.530;2023-08-30T10:52:04;23.90;5.00
10245;DHT22;5167;52.164;10.530;2023-08-30T10:54:38;24.00;5.00
10245;DHT22;5167;52.164;10.530;2023-08-30T10:57:04;23.80;5.00
10245;DHT22;5167;52.164;10.530;2023-08-30T10:59:30;24.00;5.00
10245;DHT22;5167;52.164;10.530;2023-08-30T11:01:56;24.00;5.00
10245;DHT22;5167;52.164;10.530;2023-08-30T11:04:26;24.00;5.00
10245;DHT22;5167;52.164;10.530;2023-08-30T11:06:51;24.00;5.00
10245;DHT22;5167;52.164;10.530;2023-08-30T11:09:20;24.00;5.00
10245;DHT22;5167;52.164;10.530;2023-08-30T11:11:49;24.20;5.00
10245;DHT22;5167;52.164;10.530;2023-08-30T11:14:16;24.30;5.00
10245;DHT22;5167;52.164;10.530;2023-08-30T11:16:42;24.20;5.00
10245;DHT22;5167;52.164;10.530;2023-08-30T11:19:09;24.20;5.00
10245;DHT22;5167;52.164;10.530;2023-08-30T11:21:37;24.20;5.00
10245;DHT22;5167;52.164;10.530;2023-08-30T11:24:04;24.20;5.00
10245;DHT22;5167;52.164;10.530;2023-08-30T11:26:30;24.20;5.00
10245;DHT22;5167;52.164;10.530;2023-08-30T11:28:55;24.30;5.00
10245;DHT22;5167;52.164;10.530;2023-08-30T11:31:23;24.20;5.00
10245;DHT22;5167;52.164;10.530;2023-08-30T11:33:54;24.30;5.00
10245;DHT22;5167;52.164;10.530;2023-08-30T11:36:22;24.30;5.00
10245;DHT22;5167;52.164;10.530;2023-08-30T11:38:49;24.30;5.00
10245;DHT22;5167;52.164;10.530;2023-08-30T11:41:16;24.20;5.00
10245;DHT22;5167;52.164;10.530;2023-08-30T11:43:41;24.20;5.00
10245;DHT22;5167;52.164;10.530;2023-08-30T11:46:08;24.20;5.00
10245;DHT22;5167;52.164;10.530;2023-08-30T11:48:34;24.30;5.00
10245;DHT22;5167;52.164;10.530;2023-08-30T11:51:00;24.20;5.00
10245;DHT22;5167;52.164;10.530;2023-08-30T11:53:27;24.30;5.00
10245;DHT22;5167;52.164;10.530;2023-08-30T11:55:53;24.40;5.00
10245;DHT22;5167;52.164;10.530;2023-08-30T11:58:19;24.30;5.00
10245;DHT22;5167;52.164;10.530;2023-08-30T12:00:45;24.20;5.00
10245;DHT22;5167;52.164;10.530;2023-08-30T12:03:14;24.20;5.00
10245;DHT22;5167;52.164;10.530;2023-08-30T12:05:47;24.20;5.00
10245;DHT22;5167;52.164;10.530;2023-08-30T12:08:39;24.20;5.00
10245;DHT22;5167;52.164;10.530;2023-08-30T12:11:05;24.20;5.00
10245;DHT22;5167;52.164;10.530;2023-08-30T12:13:34;24.20;5.00
10245;DHT22;5167;52.164;10.530;2023-08-30T12:16:01;24.10;5.00
10245;DHT22;5167;52.164;10.530;2023-08-30T12:18:29;24.10;5.00
10245;DHT22;5167;52.164;10.530;2023-08-30T12:20:59;24.10;5.00
10245;DHT22;5167;52.164;10.530;2023-08-30T12:23:26;24.10;5.00
10245;DHT22;5167;52.164;10.530;2023-08-30T12:26:06;24.10;5.00
10245;DHT22;5167;52.164;10.530;2023-08-30T12:28:36;24.10;5.00
10245;DHT22;5167;52.164;10.530;2023-08-30T12:31:02;24.10;5.00
10245;DHT22;5167;52.164;10.530;2023-08-30T12:33:31;24.00;5.00
10245;DHT22;5167;52.164;10.530;2023-08-30T12:35:57;24.00;5.00
10245;DHT22;5167;52.164;10.530;2023-08-30T12:38:24;24.00;5.00
10245;DHT22;5167;52.164;10.530;2023-08-30T12:40:51;23.90;5.00
10245;DHT22;5167;52.164;10.530;2023-08-30T12:43:18;23.90;5.00
10245;DHT22;5167;52.164;10.530;2023-08-30T12:45:45;23.90;5.00
10245;DHT22;5167;52.164;10.530;2023-08-30T12:48:12;23.90;5.00
10245;DHT22;5167;52.164;10.530;2023-08-30T12:50:39;23.80;5.00
10245;DHT22;5167;52.164;10.530;2023-08-30T12:53:05;23.80;5.00
10245;DHT22;5167;52.164;10.530;2023-08-30T12:55:31;23.80;5.00
10245;DHT22;5167;52.164;10.530;2023-08-30T12:57:57;23.70;5.00
10245;DHT22;5167;52.164;10.530;2023-08-30T13:00:23;23.70;5.00
10245;DHT22;5167;52.164;10.530;2023-08-30T13:02:49;23.70;5.00
10245;DHT22;5167;52.164;10.530;2023-08-30T13:05:15;23.60;5.00
10245;DHT22;5167;52.164;10.530;2023-08-30T13:07:41;23.60;5.00
10245;DHT22;5167;52.164;10.530;2023-08-30T13:10:07;23.60;5.00
10245;DHT22;5167;52.164;10.530;2023-08-30T13:12:33;23.60;5.00
10245;DHT22;5167;52.164;10.530;2023-08-30T13:14:58;23.50;5.00
10245;DHT22;5167;52.164;10.530;2023-08-30T13:17:24;23.50;5.00
10245;DHT22;5167;52.164;10.530;2023-08-30T13:19:49;23.50;5.00
10245;DHT22;5167;52.164;10.530;2023-08-30T13:22:16;23.40;5.00
10245;DHT22;5167;52.164;10.530;2023-08-30T13:24:41;23.40;5.00
10245;DHT22;5167;52.164;10.530;2023-08-30T13:27:07;23.40;5.00
10245;DHT22;5167;52.164;10.530;2023-08-30T13:29:32;23.40;5.00
10245;DHT22;5167;52.164;10.530;2023-08-30T13:31:58;23.40;5.00
10245;DHT22;5167;52.164;10.530;2023-08-30T13:34:23;23.30;5.00
10245;DHT22;5167;52.164;10.530;2023-08-30T13:36:49;23.40;5.00
10245;DHT22;5167;52.164;10.530;2023-08-30T13:39:14;23.30;5.00
10245;DHT22;5167;52.164;10.530;2023-08-30T13:41:40;23.30;5.00
10245;DHT22;5167;52.164;10.530;2023-08-30T13:44:06;23.30;5.00
10245;DHT22;5167;52.164;10.530;2023-08-30T13:46:32;23.20;5.00
10245;DHT22;5167;52.164;10.530;2023-08-30T13:48:57;23.30;5.00
10245;DHT22;5167;52.164;10.530;2023-08-30T13:51:26;23.30;5.00
10245;DHT22;5167;52.164;10.530;2023-08-30T13:53:52;23.30;5.00
10245;DHT22;5167;52.164;10.530;2023-08-30T13:56:19;23.30;5.00
10245;DHT22;5167;52.164;10.530;2023-08-30T13:58:45;23.30;5.00
10245;DHT22;5167;52.164;10.530;2023-08-30T14:01:11;23.20;5.00
10245;DHT22;5167;52.164;10.530;2023-08-30T14:03:36;23.20;5.00
10245;DHT22;5167;52.164;10.530;2023-08-30T14:06:02;23.30;5.00
10245;DHT22;5167;52.164;10.530;2023-08-30T14:08:28;23.30;5.00
10245;DHT22;5167;52.164;10.530;2023-08-30T14:10:55;23.40;5.00
10245;DHT22;5167;52.164;10.530;2023-08-30T14:13:21;23.40;5.00
10245;DHT22;5167;52.164;10.530;2023-08-30T14:15:47;23.40;5.00
10245;DHT22;5167;52.164;10.530;2023-08-30T14:18:13;23.50;5.00
10245;DHT22;5167;52.164;10.530;2023-08-30T14:20:39;23.60;5.00
10245;DHT22;5167;52.164;10.530;2023-08-30T14:23:04;23.50;5.00
10245;DHT22;5167;52.164;10.530;2023-08-30T14:25:30;23.50;5.00
10245;DHT22;5167;52.164;10.530;2023-08-30T14:27:55;23.60;5.00
10245;DHT22;5167;52.164;10.530;2023-08-30T14:30:21;23.50;5.00
10245;DHT22;5167;52.164;10.530;2023-08-30T14:32:47;23.60;5.00
10245;DHT22;5167;52.164;10.530;2023-08-30T14:35:12;23.40;5.00
10245;DHT22;5167;52.164;10.530;2023-08-30T14:37:38;23.50;5.00
10245;DHT22;5167;52.164;10.530;2023-08-30T14:40:05;23.40;5.00
10245;DHT22;5167;52.164;10.530;2023-08-30T14:42:31;23.40;5.00
10245;DHT22;5167;52.164;10.530;2023-08-30T14:44:57;23.40;5.00
10245;DHT22;5167;52.164;10.530;2023-08-30T14:47:23;23.40;5.00
10245;DHT22;5167;52.164;10.530;2023-08-30T14:49:49;23.40;5.00
10245;DHT22;5167;52.164;10.530;2023-08-30T14:52:14;23.40;5.00
10245;DHT22;5167;52.164;10.530;2023-08-30T14:54:40;23.40;5.00
10245;DHT22;5167;52.164;10.530;2023-08-30T14:57:06;23.30;5.00
10245;DHT22;5167;52.164;10.530;2023-08-30T14:59:32;23.30;5.00
10245;DHT22;5167;52.164;10.530;2023-08-30T15:01:57;23.30;5.00
10245;DHT22;5167;52.164;10.530;2023-08-30T15:04:23;23.30;5.00
10245;DHT22;5167;52.164;10.530;2023-08-30T15:06:48;23.20;5.00
10245;DHT22;5167;52.164;10.530;2023-08-30T15:09:14;23.20;5.00
10245;DHT22;5167;52.164;10.530;2023-08-30T15:11:42;23.20;5.00
10245;DHT22;5167;52.164;10.530;2023-08-30T15:14:07;23.10;5.00
10245;DHT22;5167;52.164;10.530;2023-08-30T15:16:33;23.10;5.00
10245;DHT22;5167;52.164;10.530;2023-08-30T15:18:58;23.00;5.00
10245;DHT22;5167;52.164;10.530;2023-08-30T15:21:24;23.00;5.00
10245;DHT22;5167;52.164;10.530;2023-08-30T15:23:49;23.00;5.00
10245;DHT22;5167;52.164;10.530;2023-08-30T15:26:15;23.00;5.00
10245;DHT22;5167;52.164;10.530;2023-08-30T15:28:48;23.00;5.00
10245;DHT22;5167;52.164;10.530;2023-08-30T15:31:15;23.00;5.00
10245;DHT22;5167;52.164;10.530;2023-08-30T15:33:43;23.00;5.00
10245;DHT22;5167;52.164;10.530;2023-08-30T15:36:08;22.90;5.00
10245;DHT22;5167;52.164;10.530;2023-08-30T15:38:34;23.00;5.00